Banjul, Gambia

2:23 AM GMT on September 02, 2014 (GMT +0000)
Banjul International | Change Station
CLOSE
Current Station
Airport
Location: Banjul,
Elevation: 95 ft
Nearby Weather Stations

Elev 95 ft 13.34 °N, 16.65 °W | Updated 23 minutes ago

Partly Cloudy
Partly Cloudy
79 °F
Feels Like 79 °F
N
0
Wind Variable Wind from North

Today
High -- | Low -- °F
--% Chance of Precip.
Yesterday
High -- | Low -- °F
Precip. -- in
6:55 AM 7:17 PM
Waxing Crescent, 46% visible
Pressure 29.86 in
Visibility 6.2 miles
Clouds Scattered Clouds 1000 ft
Few 11000 ft
Dew Point 77 °F
Humidity 94%
Rainfall 0.00 in
Snow Depth Not available.
UV 0 out of 12
Pollen Not available.
Air Quality Not available.
Flu Activity Not available.
METAR GBYD 020200Z 00000KT 9999 SCT010 FEW110 26/25 Q1011

More Conditions Fewer Conditions

Pressure 29.86 in
Visibility 6.2 miles
Clouds Scattered Clouds 1000 ft
Few 11000 ft
Dew Point 77 °F
Humidity 94%
Rainfall 0.00 in
Snow Depth Not available.
UV 0 out of 12
Pollen Not available.
Air Quality Not available.
Flu Activity Not available.
METAR GBYD 020200Z 00000KT 9999 SCT010 FEW110 26/25 Q1011

More Conditions Fewer Conditions

10-Day Weather Forecast

Almanac

Astronomy

Sep. 02, 2014 Rise Set
Actual Time 6:55 AM GMT 7:17 PM GMT
Civil Twilight 6:33 AM GMT 7:38 PM GMT
Nautical Twilight 6:08 AM GMT 8:03 PM GMT
Astronomical Twilight 5:43 AM GMT 8:28 PM GMT
Moon 1:19 PM GMT 12:15 AM GMT
Length of Visible Light 13h 04m
Length of Day
12h 21m
Tomorrow will be 0m 42s shorter.
Waxing Crescent, 46% of the Moon is Illuminated
Sep 1
Waxing Crescent
Sep 2
First Quarter
Sep 8
Full
Sep 15
Last Quarter
Sep 24
New

Yesterday's Extremes

Country Highs Country Lows

Community

WunderPhotos

Upload Photos

1,749,500 photos uploaded!

Nearby

Snow Depth

Not available.

Earthquake Activity

City Distance Mag. Time & Date
No recent earthquake activity has been reported nearby.
Minimum magnitude displayed is 2.5.

Coastal Water Temperatures

Place Temperature
No Stations Reporting

Nearby Weather Stations